createdAt,value
2023-01-31T00:01:35.048Z,100890.16
2023-01-31T00:04:04.704Z,100899.03
2023-01-31T00:06:34.005Z,100894.59
2023-01-31T00:09:02.984Z,100905.34
2023-01-31T00:11:31.751Z,100903.78
2023-01-31T00:14:00.783Z,100911.41
2023-01-31T00:16:30.358Z,100917.31
2023-01-31T00:18:58.272Z,100913.69
2023-01-31T00:21:28.518Z,100921.47
2023-01-31T00:23:57.407Z,100917.59
2023-01-31T00:26:27.310Z,100928.00
2023-01-31T00:28:56.773Z,100919.59
2023-01-31T00:31:26.164Z,100932.53
2023-01-31T00:33:56.559Z,100937.75
2023-01-31T00:36:27.354Z,100940.25
2023-01-31T00:38:57.649Z,100938.16
2023-01-31T00:41:26.876Z,100939.34
2023-01-31T00:43:54.832Z,100941.22
2023-01-31T00:46:23.741Z,100933.94
2023-01-31T00:48:51.816Z,100933.94
2023-01-31T00:51:22.129Z,100951.41
2023-01-31T00:53:50.314Z,100959.91
2023-01-31T00:56:22.784Z,100971.09
2023-01-31T00:58:51.106Z,100967.81
2023-01-31T01:01:22.064Z,100964.56
2023-01-31T01:03:50.724Z,100967.59
2023-01-31T01:06:20.286Z,100968.19
2023-01-31T01:08:49.363Z,100992.13
2023-01-31T01:11:19.311Z,100990.56
2023-01-31T01:13:47.568Z,100979.69
2023-01-31T01:16:17.137Z,100990.28
2023-01-31T01:18:47.160Z,100990.28
2023-01-31T01:21:19.317Z,100992.16
2023-01-31T01:23:49.520Z,101001.44
2023-01-31T01:26:19.264Z,100995.72
2023-01-31T01:28:47.532Z,100996.47
2023-01-31T01:31:17.245Z,100997.66
2023-01-31T01:33:46.054Z,100996.19
2023-01-31T01:36:17.342Z,100998.66
2023-01-31T01:38:46.689Z,100998.28
2023-01-31T01:41:16.443Z,101015.47
2023-01-31T01:43:47.023Z,101012.78
2023-01-31T01:46:18.773Z,101015.28
2023-01-31T01:48:49.570Z,101023.78
2023-01-31T01:51:20.073Z,101021.50
2023-01-31T01:53:51.514Z,101027.34
2023-01-31T01:56:23.398Z,101030.72
2023-01-31T01:58:57.778Z,101041.00
2023-01-31T02:01:30.045Z,101038.50
2023-01-31T02:03:58.117Z,101053.91
2023-01-31T02:06:26.878Z,101063.50
2023-01-31T02:08:55.892Z,101059.97
2023-01-31T02:11:27.343Z,101065.13
2023-01-31T02:14:00.785Z,101066.00
2023-01-31T02:16:29.114Z,101076.97
2023-01-31T02:18:58.112Z,101075.41
2023-01-31T02:22:00.804Z,101069.47
2023-01-31T02:25:12.834Z,101082.72
2023-01-31T02:28:10.320Z,101085.47
2023-01-31T02:31:10.740Z,101101.91
2023-01-31T02:33:45.306Z,101103.66
2023-01-31T02:36:25.671Z,101109.69
2023-01-31T02:39:08.737Z,101108.22
2023-01-31T02:41:43.928Z,101119.50
2023-01-31T02:44:39.151Z,101112.78
2023-01-31T02:47:18.648Z,101111.59
2023-01-31T02:49:54.187Z,101105.34
2023-01-31T02:52:33.061Z,101098.44
2023-01-31T02:55:28.021Z,101094.69
2023-01-31T02:57:58.557Z,101105.03
2023-01-31T03:00:27.454Z,101103.72
2023-01-31T03:02:56.341Z,101104.19
2023-01-31T03:05:26.102Z,101101.31
2023-01-31T03:07:57.002Z,101094.88
2023-01-31T03:10:39.684Z,101106.75
2023-01-31T03:13:24.246Z,101088.72
2023-01-31T03:16:21.461Z,101101.44
2023-01-31T03:18:59.001Z,101099.44
2023-01-31T03:21:33.590Z,101097.56
2023-01-31T03:24:02.074Z,101108.84
2023-01-31T03:26:29.907Z,101112.66
2023-01-31T03:29:01.199Z,101104.19
2023-01-31T03:31:33.857Z,101114.13
2023-01-31T03:34:04.867Z,101124.41
2023-01-31T03:36:39.430Z,101130.22
2023-01-31T03:39:14.202Z,101130.91
2023-01-31T03:41:53.890Z,101133.47
2023-01-31T03:44:31.497Z,101122.88
2023-01-31T03:47:04.433Z,101134.81
2023-01-31T03:49:35.141Z,101145.19
2023-01-31T03:52:08.467Z,101155.94
2023-01-31T03:54:40.332Z,101148.25
2023-01-31T03:57:14.717Z,101135.16
2023-01-31T03:59:46.493Z,101140.22
2023-01-31T04:02:18.169Z,101143.00
2023-01-31T04:04:51.838Z,101131.03
2023-01-31T04:07:21.237Z,101144.66
2023-01-31T04:09:49.196Z,101159.16
2023-01-31T04:12:17.247Z,101149.56
2023-01-31T04:14:45.331Z,101157.06
2023-01-31T04:17:13.415Z,101153.13
2023-01-31T04:19:41.273Z,101168.53
2023-01-31T04:22:09.050Z,101166.78
2023-01-31T04:24:38.233Z,101172.59
2023-01-31T04:27:06.046Z,101171.34
2023-01-31T04:29:33.830Z,101163.00
2023-01-31T04:32:01.691Z,101165.31
2023-01-31T04:34:29.546Z,101166.69
2023-01-31T04:36:57.288Z,101148.94
2023-01-31T04:39:25.167Z,101165.00
2023-01-31T04:41:54.293Z,101175.06
2023-01-31T04:44:22.112Z,101172.84
2023-01-31T04:46:49.918Z,101183.53
2023-01-31T04:49:17.982Z,101182.63
2023-01-31T04:51:45.744Z,101195.72
2023-01-31T04:54:13.629Z,101192.69
2023-01-31T04:56:41.373Z,101190.00
2023-01-31T04:59:10.554Z,101201.41
2023-01-31T05:01:38.336Z,101198.38
2023-01-31T05:04:06.101Z,101205.53
2023-01-31T05:06:33.827Z,101207.41
2023-01-31T05:09:01.641Z,101205.19
2023-01-31T05:11:29.981Z,101194.69
2023-01-31T05:13:57.808Z,101199.25
2023-01-31T05:16:27.121Z,101199.84
2023-01-31T05:18:54.883Z,101198.03
2023-01-31T05:21:22.659Z,101203.97
2023-01-31T05:23:50.444Z,101205.38
2023-01-31T05:26:18.260Z,101206.19
2023-01-31T05:28:46.068Z,101213.09
2023-01-31T05:31:14.245Z,101205.63
2023-01-31T05:33:43.512Z,101200.03
2023-01-31T05:36:11.359Z,101210.63
2023-01-31T05:38:39.078Z,101203.06
2023-01-31T05:41:06.765Z,101207.03
2023-01-31T05:43:36.285Z,101218.31
2023-01-31T05:46:04.599Z,101217.66
2023-01-31T05:48:32.495Z,101213.69
2023-01-31T05:51:02.080Z,101225.22
2023-01-31T05:53:29.976Z,101216.91
2023-01-31T05:55:57.700Z,101215.81
2023-01-31T05:58:25.433Z,101214.22
2023-01-31T06:00:56.612Z,101216.22
2023-01-31T06:03:24.431Z,101224.94
2023-01-31T06:05:52.254Z,101223.44
2023-01-31T06:08:21.344Z,101211.91
2023-01-31T06:10:49.076Z,101219.94
2023-01-31T06:13:16.812Z,101215.50
2023-01-31T06:15:45.200Z,101217.25
2023-01-31T06:18:13.297Z,101223.28
2023-01-31T06:20:41.027Z,101232.91
2023-01-31T06:23:08.725Z,101234.69
2023-01-31T06:25:37.873Z,58734.78
2023-01-31T06:28:05.848Z,58734.78
2023-01-31T06:30:33.671Z,58734.78
2023-01-31T06:33:01.733Z,58734.78
2023-01-31T06:35:29.615Z,58734.78
2023-01-31T06:37:57.387Z,58734.78
2023-01-31T06:40:25.110Z,58734.78
2023-01-31T06:42:54.193Z,58734.78
2023-01-31T06:45:22.396Z,58734.78
2023-01-31T06:47:50.495Z,58734.78
2023-01-31T06:50:19.120Z,58734.78
2023-01-31T06:52:46.883Z,58734.78
2023-01-31T06:55:14.780Z,58734.78
2023-01-31T06:57:47.851Z,58734.78
2023-01-31T07:00:19.539Z,58734.78
2023-01-31T07:02:47.923Z,58734.78
2023-01-31T07:05:15.904Z,58734.78
2023-01-31T07:07:43.655Z,58734.78
2023-01-31T07:10:12.505Z,58734.78
2023-01-31T07:12:40.824Z,58734.78
2023-01-31T07:15:10.008Z,58734.78
2023-01-31T07:17:39.186Z,58734.78
2023-01-31T07:20:08.260Z,58734.78
2023-01-31T07:22:36.078Z,58734.78
2023-01-31T07:25:03.831Z,58734.78
2023-01-31T07:27:31.581Z,58734.78
2023-01-31T07:29:59.339Z,58734.78
2023-01-31T07:32:30.309Z,58734.78
2023-01-31T07:34:59.367Z,58734.78
2023-01-31T07:37:27.161Z,58734.78
2023-01-31T07:39:55.031Z,58734.78
2023-01-31T07:42:22.794Z,58734.78
2023-01-31T07:44:50.936Z,58734.78
2023-01-31T07:47:18.673Z,58734.78
2023-01-31T07:49:46.424Z,58734.78
2023-01-31T07:52:15.649Z,58734.78
2023-01-31T07:54:43.544Z,58734.78
2023-01-31T07:57:11.320Z,58734.78
2023-01-31T07:59:39.089Z,58734.78
2023-01-31T08:02:28.394Z,58734.78
2023-01-31T08:04:56.360Z,58734.78
2023-01-31T08:07:27.089Z,58734.78
2023-01-31T08:09:54.979Z,58734.78
2023-01-31T08:12:22.749Z,58734.78
2023-01-31T08:14:50.525Z,58734.78
2023-01-31T08:17:18.403Z,58734.78
2023-01-31T08:19:46.248Z,58734.78
2023-01-31T08:22:14.063Z,58734.78
2023-01-31T08:24:43.292Z,58734.78
2023-01-31T08:27:11.322Z,58734.78
2023-01-31T08:29:39.110Z,58734.78
2023-01-31T08:32:07.430Z,58734.78
2023-01-31T08:34:35.260Z,58734.78
2023-01-31T08:37:02.960Z,58734.78
2023-01-31T08:39:30.720Z,58734.78
2023-01-31T08:41:59.838Z,58734.78
2023-01-31T08:44:27.509Z,58734.78
2023-01-31T08:46:55.408Z,58734.78
2023-01-31T08:49:23.256Z,58734.78
2023-01-31T08:51:51.164Z,58734.78
2023-01-31T08:54:18.970Z,58734.78
2023-01-31T08:56:46.952Z,58734.78
2023-01-31T08:59:16.287Z,58734.78
2023-01-31T09:01:46.555Z,58734.78
2023-01-31T09:04:14.518Z,58734.78
2023-01-31T09:06:42.336Z,58734.78
2023-01-31T09:09:10.877Z,58734.78
2023-01-31T09:11:39.604Z,58734.78
2023-01-31T09:14:07.607Z,58734.78
2023-01-31T09:16:36.830Z,58734.78
2023-01-31T09:19:04.629Z,58734.78
2023-01-31T09:21:32.521Z,58734.78
2023-01-31T09:24:03.763Z,58734.78
2023-01-31T09:26:32.327Z,58734.78
2023-01-31T09:29:01.456Z,58734.78
2023-01-31T09:31:30.158Z,58734.78
2023-01-31T09:33:59.400Z,58734.78
2023-01-31T09:36:27.721Z,58734.78
2023-01-31T09:38:56.940Z,58734.78
2023-01-31T09:41:30.904Z,58734.78
2023-01-31T09:44:02.744Z,58734.78
2023-01-31T09:46:37.337Z,58734.78
2023-01-31T09:49:11.912Z,58734.78
2023-01-31T09:51:40.735Z,58734.78
2023-01-31T09:54:17.833Z,58734.78
2023-01-31T09:56:55.519Z,58734.78
2023-01-31T09:59:26.840Z,58734.78
2023-01-31T10:02:00.927Z,58734.78
2023-01-31T10:04:45.260Z,58734.78
2023-01-31T10:07:19.833Z,58734.78
2023-01-31T10:09:52.540Z,58734.78
2023-01-31T10:12:24.408Z,58734.78
2023-01-31T10:14:55.478Z,58734.78
2023-01-31T10:17:27.201Z,58734.78
2023-01-31T10:20:00.378Z,58734.78
2023-01-31T10:22:37.160Z,58734.78
2023-01-31T10:25:18.789Z,58734.78
2023-01-31T10:27:51.297Z,58734.78
2023-01-31T10:30:23.289Z,58734.78
2023-01-31T10:32:56.427Z,58734.78
2023-01-31T10:35:32.042Z,58734.78
2023-01-31T10:38:05.835Z,58734.78
2023-01-31T10:40:36.751Z,58734.78
2023-01-31T10:43:15.182Z,58734.78
2023-01-31T10:45:42.923Z,58734.78
2023-01-31T10:48:17.422Z,58734.78
2023-01-31T10:50:57.145Z,58734.78
2023-01-31T10:53:39.793Z,58734.78
2023-01-31T10:56:11.381Z,58734.78
2023-01-31T10:58:40.041Z,58734.78
2023-01-31T11:01:11.948Z,58734.78
2023-01-31T11:03:40.153Z,58734.78
2023-01-31T11:06:13.630Z,58734.78
2023-01-31T11:08:45.494Z,58734.78
2023-01-31T11:11:17.028Z,58734.78
2023-01-31T11:13:57.977Z,58734.78
2023-01-31T11:16:27.404Z,58734.78
2023-01-31T11:18:55.433Z,58734.78
2023-01-31T11:21:28.305Z,58734.78
2023-01-31T11:24:03.405Z,58734.78
2023-01-31T11:26:34.627Z,58734.78
2023-01-31T11:29:08.511Z,58734.78
2023-01-31T11:31:42.003Z,58734.78
2023-01-31T11:34:21.489Z,58734.78
2023-01-31T11:36:50.643Z,58734.78
2023-01-31T11:39:31.659Z,58734.78
2023-01-31T11:42:07.113Z,58734.78
2023-01-31T11:44:34.890Z,58734.78
2023-01-31T11:47:05.600Z,58734.78
2023-01-31T11:49:35.902Z,58734.78
2023-01-31T11:52:14.977Z,58734.78
2023-01-31T11:54:47.587Z,58734.78
2023-01-31T11:57:18.111Z,58734.78
2023-01-31T11:59:46.039Z,58734.78
2023-01-31T12:02:28.074Z,58734.78
2023-01-31T12:04:56.392Z,58734.78
2023-01-31T12:07:29.041Z,58734.78
2023-01-31T12:09:57.223Z,58734.78
2023-01-31T12:12:31.252Z,58734.78
2023-01-31T12:15:03.809Z,58734.78
2023-01-31T12:17:45.149Z,58734.78
2023-01-31T12:20:28.640Z,58734.78
2023-01-31T12:23:08.545Z,58734.78
2023-01-31T12:25:48.905Z,58734.78
2023-01-31T12:28:30.565Z,58734.78
2023-01-31T12:31:14.295Z,58734.78
2023-01-31T12:34:05.265Z,58734.78
2023-01-31T12:36:48.661Z,58734.78
2023-01-31T12:39:43.948Z,58734.78
2023-01-31T12:42:34.248Z,58734.78
2023-01-31T12:45:18.247Z,58734.78
2023-01-31T12:48:14.301Z,58734.78
2023-01-31T12:50:49.385Z,58734.78
2023-01-31T12:53:40.493Z,58734.78
2023-01-31T12:56:48.170Z,58734.78
2023-01-31T12:59:37.407Z,58734.78
2023-01-31T13:02:17.797Z,58734.78
2023-01-31T13:04:50.132Z,58734.78
2023-01-31T13:07:26.406Z,58734.78
2023-01-31T13:10:07.974Z,58734.78
2023-01-31T13:12:40.281Z,58734.78
2023-01-31T13:15:28.553Z,58734.78
2023-01-31T13:18:01.112Z,58734.78
2023-01-31T13:20:33.650Z,58734.78
2023-01-31T13:23:05.856Z,58734.78
2023-01-31T13:25:39.882Z,58734.78
2023-01-31T13:28:16.395Z,58734.78
2023-01-31T13:30:52.837Z,58734.78
2023-01-31T13:33:31.233Z,58734.78
2023-01-31T13:36:08.386Z,58734.78
2023-01-31T13:38:40.269Z,58734.78
2023-01-31T13:41:12.411Z,58734.78
2023-01-31T13:43:40.603Z,58734.78
2023-01-31T13:46:12.748Z,58734.78
2023-01-31T13:48:46.300Z,58734.78
2023-01-31T13:51:20.989Z,58734.78
2023-01-31T13:53:53.739Z,58734.78
2023-01-31T13:56:25.974Z,58734.78
2023-01-31T13:58:57.003Z,58734.78
2023-01-31T14:01:29.481Z,58734.78
2023-01-31T14:04:27.094Z,58734.78
2023-01-31T14:07:17.409Z,58734.78
2023-01-31T14:10:07.120Z,58734.78
2023-01-31T14:12:36.270Z,58734.78
2023-01-31T14:15:25.908Z,58734.78
2023-01-31T14:18:02.725Z,58734.78
2023-01-31T14:20:32.291Z,58734.78
2023-01-31T14:23:30.527Z,58734.78
2023-01-31T14:25:58.808Z,58734.78
2023-01-31T14:28:27.233Z,58734.78
2023-01-31T14:30:56.761Z,58734.78
2023-01-31T14:33:29.096Z,58734.78
2023-01-31T14:36:25.288Z,58734.78
2023-01-31T14:39:21.602Z,58734.78
2023-01-31T14:42:05.539Z,58734.78
2023-01-31T14:44:45.137Z,58734.78
2023-01-31T14:47:27.940Z,58734.78
2023-01-31T14:50:17.572Z,58734.78
2023-01-31T14:53:02.231Z,58734.78
2023-01-31T14:55:45.694Z,58734.78
2023-01-31T14:58:19.505Z,58734.78
2023-01-31T15:00:52.895Z,58734.78
2023-01-31T15:03:25.429Z,58734.78
2023-01-31T15:05:57.598Z,58734.78
2023-01-31T15:08:44.617Z,58734.78
2023-01-31T15:11:17.430Z,58734.78
2023-01-31T15:13:49.656Z,58734.78
2023-01-31T15:16:22.199Z,58734.78
2023-01-31T15:18:53.894Z,58734.78
2023-01-31T15:21:27.751Z,58734.78
2023-01-31T15:23:56.426Z,58734.78
2023-01-31T15:26:28.196Z,58734.78
2023-01-31T15:28:57.786Z,58734.78
2023-01-31T15:31:32.263Z,58734.78
2023-01-31T15:34:06.783Z,58734.78
2023-01-31T15:36:45.839Z,58734.78
2023-01-31T15:39:23.762Z,58734.78
2023-01-31T15:41:51.477Z,58734.78
2023-01-31T15:44:21.590Z,58734.78
2023-01-31T15:46:51.518Z,58734.78
2023-01-31T15:49:38.431Z,58734.78
2023-01-31T15:52:13.677Z,58734.78
2023-01-31T15:54:52.945Z,58734.78
2023-01-31T15:57:24.031Z,58734.78
2023-01-31T15:59:52.132Z,58734.78
2023-01-31T16:02:26.721Z,58734.78
2023-01-31T16:04:54.715Z,58734.78
2023-01-31T16:07:29.336Z,58734.78
2023-01-31T16:09:59.315Z,58734.78
2023-01-31T16:12:29.374Z,58734.78
2023-01-31T16:15:00.008Z,58734.78
2023-01-31T16:17:28.989Z,58734.78
2023-01-31T16:19:58.301Z,58734.78
2023-01-31T16:22:30.814Z,58734.78
2023-01-31T16:25:00.290Z,58734.78
2023-01-31T16:27:30.586Z,58734.78
2023-01-31T16:30:00.086Z,58734.78
2023-01-31T16:32:30.888Z,58734.78
2023-01-31T16:35:01.976Z,58734.78
2023-01-31T16:37:35.250Z,58734.78
2023-01-31T16:40:07.528Z,58734.78
2023-01-31T16:42:39.097Z,58734.78
2023-01-31T16:45:29.263Z,58734.78
2023-01-31T16:48:10.127Z,58734.78
2023-01-31T16:50:43.338Z,58734.78
2023-01-31T16:53:20.055Z,58734.78
2023-01-31T16:56:07.796Z,58734.78
2023-01-31T16:58:47.814Z,58734.78
2023-01-31T17:01:18.653Z,58734.78
2023-01-31T17:03:48.523Z,58734.78
2023-01-31T17:06:22.099Z,58734.78
2023-01-31T17:08:51.319Z,58734.78
2023-01-31T17:11:39.639Z,58734.78
2023-01-31T17:14:09.165Z,58734.78
2023-01-31T17:16:36.961Z,58734.78
2023-01-31T17:19:05.073Z,58734.78
2023-01-31T17:21:38.948Z,58734.78
2023-01-31T17:24:13.144Z,58734.78
2023-01-31T17:26:40.969Z,58734.78
2023-01-31T17:29:09.130Z,58734.78
2023-01-31T17:31:37.168Z,58734.78
2023-01-31T17:34:06.425Z,58734.78
2023-01-31T17:36:34.120Z,58734.78
2023-01-31T17:39:01.944Z,58734.78
2023-01-31T17:41:31.209Z,58734.78
2023-01-31T17:44:00.633Z,58734.78
2023-01-31T17:46:28.648Z,58734.78
2023-01-31T17:48:56.511Z,58734.78
2023-01-31T17:51:24.462Z,58734.78
2023-01-31T17:53:52.439Z,58734.78
2023-01-31T17:56:20.864Z,58734.78
2023-01-31T17:58:50.331Z,58734.78
2023-01-31T18:01:18.130Z,58734.78
2023-01-31T18:03:45.961Z,58734.78
2023-01-31T18:06:13.960Z,58734.78
2023-01-31T18:08:41.860Z,58734.78
2023-01-31T18:11:11.548Z,58734.78
2023-01-31T18:13:39.758Z,58734.78
2023-01-31T18:16:11.150Z,58734.78
2023-01-31T18:18:40.446Z,58734.78
2023-01-31T18:21:10.326Z,58734.78
2023-01-31T18:23:38.094Z,58734.78
2023-01-31T18:26:06.782Z,58734.78
2023-01-31T18:28:34.812Z,58734.78
2023-01-31T18:31:04.114Z,58734.78
2023-01-31T18:33:33.616Z,58734.78
2023-01-31T18:36:02.577Z,58734.78
2023-01-31T18:38:31.441Z,58734.78
2023-01-31T18:41:00.189Z,58734.78
2023-01-31T18:43:30.737Z,58734.78
2023-01-31T18:45:58.506Z,58734.78
2023-01-31T18:48:26.393Z,58734.78
2023-01-31T18:50:55.661Z,58734.78
2023-01-31T18:53:23.663Z,58734.78
2023-01-31T18:55:59.898Z,58734.78
2023-01-31T18:58:31.684Z,58734.78
2023-01-31T19:01:06.716Z,58734.78
2023-01-31T19:03:34.946Z,58734.78
2023-01-31T19:06:09.548Z,58734.78
2023-01-31T19:08:37.758Z,58734.78
2023-01-31T19:11:07.741Z,58734.78
2023-01-31T19:13:36.524Z,58734.78
2023-01-31T19:16:06.388Z,58734.78
2023-01-31T19:18:34.340Z,58734.78
2023-01-31T19:21:02.220Z,58734.78
2023-01-31T19:23:31.406Z,58734.78
2023-01-31T19:25:59.101Z,58734.78
2023-01-31T19:28:27.123Z,58734.78
2023-01-31T19:30:55.009Z,58734.78
2023-01-31T19:33:23.396Z,58734.78
2023-01-31T19:35:51.077Z,58734.78
2023-01-31T19:38:18.914Z,58734.78
2023-01-31T19:40:51.494Z,58734.78
2023-01-31T19:43:19.645Z,58734.78
2023-01-31T19:45:49.031Z,58734.78
2023-01-31T19:48:17.888Z,58734.78
2023-01-31T19:50:45.683Z,58734.78
2023-01-31T19:53:13.560Z,58734.78
2023-01-31T19:55:41.247Z,58734.78
2023-01-31T19:58:10.400Z,58734.78
2023-01-31T20:00:38.244Z,58734.78
2023-01-31T20:03:06.179Z,58734.78
2023-01-31T20:05:34.279Z,58734.78
2023-01-31T20:08:02.083Z,58734.78
2023-01-31T20:10:31.088Z,58734.78
2023-01-31T20:13:02.382Z,58734.78
2023-01-31T20:15:32.025Z,58734.78
2023-01-31T20:17:59.742Z,58734.78
2023-01-31T20:20:27.721Z,58734.78
2023-01-31T20:22:55.476Z,58734.78
2023-01-31T20:25:23.255Z,58734.78
2023-01-31T20:27:50.989Z,58734.78
2023-01-31T20:30:20.556Z,58734.78
2023-01-31T20:32:50.099Z,58734.78
2023-01-31T20:35:18.262Z,58734.78
2023-01-31T20:37:46.025Z,58734.78
2023-01-31T20:40:13.868Z,58734.78
2023-01-31T20:42:41.650Z,58734.78
2023-01-31T20:45:10.000Z,58734.78
2023-01-31T20:47:37.939Z,58734.78
2023-01-31T20:50:07.569Z,58734.78
2023-01-31T20:52:35.383Z,58734.78
2023-01-31T20:55:03.173Z,58734.78
2023-01-31T20:57:30.975Z,58734.78
2023-01-31T20:59:58.752Z,58734.78
2023-01-31T21:02:26.721Z,58734.78
2023-01-31T21:04:54.515Z,58734.78
2023-01-31T21:07:23.717Z,58734.78
2023-01-31T21:09:51.576Z,58734.78
2023-01-31T21:12:19.280Z,58734.78
2023-01-31T21:14:48.082Z,58734.78
2023-01-31T21:17:16.084Z,58734.78
2023-01-31T21:19:43.862Z,58734.78
2023-01-31T21:22:11.556Z,58734.78
2023-01-31T21:24:40.631Z,58734.78
2023-01-31T21:27:08.529Z,58734.78
2023-01-31T21:29:36.289Z,58734.78
2023-01-31T21:32:04.296Z,58734.78
2023-01-31T21:34:32.074Z,58734.78
2023-01-31T21:36:59.900Z,58734.78
2023-01-31T21:39:27.744Z,58734.78
2023-01-31T21:42:14.210Z,58734.78
2023-01-31T21:44:42.307Z,58734.78
2023-01-31T21:47:10.103Z,58734.78
2023-01-31T21:49:37.939Z,58734.78
2023-01-31T21:52:06.622Z,58734.78
2023-01-31T21:54:34.524Z,58734.78
2023-01-31T21:57:03.640Z,58734.78
2023-01-31T21:59:32.305Z,58734.78
2023-01-31T22:02:03.175Z,58734.78
2023-01-31T22:04:31.312Z,58734.78
2023-01-31T22:06:59.386Z,58734.78
2023-01-31T22:09:27.400Z,58734.78
2023-01-31T22:11:55.072Z,58734.78
2023-01-31T22:14:24.320Z,58734.78
2023-01-31T22:16:52.944Z,58734.78
2023-01-31T22:19:20.723Z,58734.78
2023-01-31T22:21:48.389Z,58734.78
2023-01-31T22:24:16.292Z,58734.78
2023-01-31T22:26:45.623Z,58734.78
2023-01-31T22:29:15.607Z,58734.78
2023-01-31T22:31:46.269Z,58734.78
2023-01-31T22:34:16.154Z,58734.78
2023-01-31T22:36:43.892Z,58734.78
2023-01-31T22:39:15.755Z,58734.78
2023-01-31T22:41:44.603Z,58734.78
2023-01-31T22:44:12.431Z,58734.78
2023-01-31T22:46:40.364Z,58734.78
2023-01-31T22:49:09.583Z,58734.78
2023-01-31T22:51:37.300Z,58734.78
2023-01-31T22:54:05.313Z,58734.78
2023-01-31T22:56:33.420Z,58734.78
2023-01-31T22:59:03.228Z,58734.78
2023-01-31T23:01:32.977Z,58734.78
2023-01-31T23:04:02.747Z,58734.78
2023-01-31T23:06:31.993Z,58734.78
2023-01-31T23:09:00.279Z,58734.78
2023-01-31T23:11:28.298Z,58734.78
2023-01-31T23:13:57.706Z,58734.78
2023-01-31T23:16:47.962Z,58734.78
2023-01-31T23:19:17.247Z,58734.78
2023-01-31T23:21:48.824Z,58734.78
2023-01-31T23:24:16.648Z,58734.78
2023-01-31T23:26:44.559Z,58734.78
2023-01-31T23:29:12.486Z,58734.78
2023-01-31T23:31:40.686Z,58734.78
2023-01-31T23:34:08.492Z,58734.78
2023-01-31T23:36:36.462Z,58734.78
2023-01-31T23:39:05.843Z,58734.78
2023-01-31T23:41:33.575Z,58734.78
2023-01-31T23:44:01.387Z,58734.78
2023-01-31T23:46:29.139Z,58734.78
2023-01-31T23:48:56.864Z,58734.78
2023-01-31T23:51:24.652Z,58734.78
2023-01-31T23:53:52.386Z,58734.78
2023-01-31T23:56:21.856Z,58734.78
2023-01-31T23:58:49.645Z,58734.78
